Time;durP1;ratioP1;P1;durP2;ratioP2;P2;SDS_P1;SDS_P2;PMS_P1;PMS_P2;Temp;Humidity;BMP_temperature;BMP_pressure;BME280_temperature;BME280_humidity;BME280_pressure;Samples;Min_cycle;Max_cycle;Signal;HPM_P1;HPM_P2
2023/06/18 00:01:09;;;;;;;9.30;8.30;;;;;;;18.32;71.95;97926.75;4198720;28;20655;-81
2023/06/18 00:03:12;;;;;;;10.40;8.57;;;;;;;18.29;71.50;97929.72;4184880;28;21204;-81
2023/06/18 00:05:16;;;;;;;9.37;8.37;;;;;;;18.24;71.54;97924.91;4201561;28;21059;-81
2023/06/18 00:07:19;;;;;;;9.10;8.20;;;;;;;18.19;72.05;97927.19;4197067;28;21359;-81
2023/06/18 00:09:22;;;;;;;9.90;8.90;;;;;;;18.16;72.51;97924.00;4200988;28;20642;-81
2023/06/18 00:11:25;;;;;;;10.37;8.20;;;;;;;18.12;72.40;97928.75;4201891;28;21640;-81
2023/06/18 00:13:29;;;;;;;9.27;7.87;;;;;;;18.11;71.94;97924.44;4201145;28;20728;-79
2023/06/18 00:15:33;;;;;;;10.67;9.20;;;;;;;18.09;71.99;97925.59;4196316;28;20664;-79
2023/06/18 00:17:36;;;;;;;10.70;8.50;;;;;;;18.11;72.28;97927.06;4196907;28;20642;-79
2023/06/18 00:19:40;;;;;;;9.03;8.10;;;;;;;18.07;72.95;97927.53;4199305;28;20640;-79
2023/06/18 00:21:43;;;;;;;11.80;8.70;;;;;;;18.05;71.91;97934.78;4200215;28;20660;-79
2023/06/18 00:23:46;;;;;;;8.93;8.00;;;;;;;17.98;72.73;97923.19;4197812;28;20746;-79
2023/06/18 00:25:49;;;;;;;9.60;8.70;;;;;;;17.92;72.46;97921.19;4197561;28;20674;-79
2023/06/18 00:27:52;;;;;;;10.90;9.70;;;;;;;17.90;73.77;97923.13;4198113;28;20634;-79
2023/06/18 00:29:56;;;;;;;11.47;9.10;;;;;;;17.91;72.26;97916.88;4202113;28;20635;-79
2023/06/18 00:32:01;;;;;;;9.97;8.97;;;;;;;17.90;72.30;97919.66;4200807;28;20670;-80
2023/06/18 00:34:06;;;;;;;10.63;8.93;;;;;;;17.89;73.19;97918.00;4185677;28;20743;-79
2023/06/18 00:36:10;;;;;;;10.80;9.03;;;;;;;17.83;72.14;97916.81;4200649;28;20693;-79
2023/06/18 00:38:16;;;;;;;9.47;8.20;;;;;;;17.83;72.65;97918.63;4200862;28;20633;-79
2023/06/18 00:40:20;;;;;;;10.47;8.90;;;;;;;17.81;73.27;97916.13;4198736;28;20663;-79
2023/06/18 00:42:23;;;;;;;9.93;8.40;;;;;;;17.80;71.56;97924.19;4195715;28;20653;-80
2023/06/18 00:44:28;;;;;;;10.33;8.60;;;;;;;17.75;72.55;97911.47;4204678;28;20672;-79
2023/06/18 00:46:36;;;;;;;11.07;9.27;;;;;;;17.71;72.92;97920.69;4194244;28;20640;-79
2023/06/18 00:48:41;;;;;;;9.90;8.90;;;;;;;17.68;72.48;97921.00;4197169;28;20631;-79
2023/06/18 00:50:44;;;;;;;11.10;8.50;;;;;;;17.62;73.46;97918.09;4189704;28;20636;-79
2023/06/18 00:52:49;;;;;;;11.30;9.00;;;;;;;17.58;73.91;97914.97;4196416;28;20627;-80
2023/06/18 00:54:53;;;;;;;10.87;8.80;;;;;;;17.57;73.89;97910.66;4201246;28;20687;-79
2023/06/18 00:56:59;;;;;;;9.10;8.20;;;;;;;17.53;73.02;97909.31;4183419;28;20623;-79
2023/06/18 00:59:02;;;;;;;9.20;8.30;;;;;;;17.48;72.98;97908.09;4182858;28;20723;-79
2023/06/18 01:01:08;;;;;;;13.57;9.23;;;;;;;17.46;73.64;97905.63;4183241;28;20686;-80
2023/06/18 01:03:16;;;;;;;11.23;9.30;;;;;;;17.42;73.39;97908.72;4185033;28;20626;-80
2023/06/18 01:05:23;;;;;;;10.40;8.80;;;;;;;17.39;73.97;97897.63;4199756;28;20665;-80
2023/06/18 01:07:27;;;;;;;9.83;8.57;;;;;;;17.35;74.76;97896.28;4189450;28;20664;-80
2023/06/18 01:09:41;;;;;;;9.73;8.73;;;;;;;17.33;73.37;97906.97;4196172;28;20624;-79
2023/06/18 01:11:45;;;;;;;9.47;8.30;;;;;;;17.30;73.29;97901.19;4198310;28;20631;-79
2023/06/18 01:13:52;;;;;;;10.00;8.50;;;;;;;17.27;74.33;97899.66;4198135;28;20638;-79
2023/06/18 01:15:56;;;;;;;9.77;8.73;;;;;;;17.24;73.83;97905.22;4201401;28;20658;-79
2023/06/18 01:18:01;;;;;;;12.73;9.93;;;;;;;17.19;75.16;97898.75;4192190;28;20645;-79
2023/06/18 01:20:10;;;;;;;10.50;9.30;;;;;;;17.17;73.28;97898.03;4201771;28;20635;-80
2023/06/18 01:22:24;;;;;;;9.97;8.63;;;;;;;17.13;73.71;97894.88;4198806;28;20804;-79
2023/06/18 01:24:30;;;;;;;10.20;8.57;;;;;;;17.09;74.58;97903.25;4207174;28;20747;-80
2023/06/18 01:26:35;;;;;;;10.27;9.17;;;;;;;17.00;73.69;97898.84;4200070;28;20663;-79
2023/06/18 01:28:40;;;;;;;10.20;8.60;;;;;;;16.96;75.71;97896.66;4196050;28;20642;-80
2023/06/18 01:30:46;;;;;;;9.73;8.73;;;;;;;16.92;73.53;97898.78;4181182;28;20723;-80
2023/06/18 01:32:49;;;;;;;10.53;8.80;;;;;;;16.91;74.01;97896.28;4190180;28;20681;-80
2023/06/18 01:34:57;;;;;;;11.10;8.87;;;;;;;16.93;73.61;97897.81;4191921;28;20757;-77
2023/06/18 01:37:06;;;;;;;11.17;9.10;;;;;;;16.96;73.02;97902.78;4181861;28;20691;-77
2023/06/18 01:39:16;;;;;;;9.93;8.90;;;;;;;16.97;75.33;97900.97;4197379;28;20729;-78
2023/06/18 01:41:27;;;;;;;10.60;8.40;;;;;;;16.98;75.04;97904.28;4203259;28;21280;-78
2023/06/18 01:43:37;;;;;;;10.67;8.63;;;;;;;16.94;73.09;97907.34;4202262;28;20634;-78
2023/06/18 01:45:48;;;;;;;10.97;8.87;;;;;;;16.84;74.41;97900.47;4186190;28;20625;-77
2023/06/18 01:47:59;;;;;;;13.83;9.00;;;;;;;16.74;74.29;97899.72;4185374;28;20616;-77
2023/06/18 01:50:07;;;;;;;12.00;9.73;;;;;;;16.64;74.14;97899.78;4192324;28;20728;-77
2023/06/18 01:52:16;;;;;;;11.57;9.23;;;;;;;16.54;76.02;97890.28;4194602;28;20620;-77
2023/06/18 01:54:23;;;;;;;11.53;9.43;;;;;;;16.50;76.31;97888.06;4184913;28;20630;-78
2023/06/18 01:56:28;;;;;;;11.00;8.57;;;;;;;16.46;75.20;97889.34;4204608;28;21279;-77
2023/06/18 01:58:38;;;;;;;11.23;9.00;;;;;;;16.47;77.07;97883.09;4190111;28;21400;-77
2023/06/18 02:00:48;;;;;;;9.70;8.70;;;;;;;16.43;76.49;97887.81;4195253;28;20986;-77
2023/06/18 02:02:54;;;;;;;11.33;9.30;;;;;;;16.44;76.04;97888.66;4186136;28;21031;-77
2023/06/18 02:05:06;;;;;;;11.23;9.00;;;;;;;16.45;76.56;97887.66;4189301;28;20630;-77
2023/06/18 02:07:09;;;;;;;9.70;8.70;;;;;;;16.43;75.06;97885.19;4202817;28;20758;-77
2023/06/18 02:09:13;;;;;;;10.10;8.00;;;;;;;16.43;77.05;97889.63;4194813;28;21002;-77
2023/06/18 02:11:18;;;;;;;11.00;9.87;;;;;;;16.42;75.00;97888.81;4199187;28;20642;-77
2023/06/18 02:13:22;;;;;;;9.80;8.80;;;;;;;16.42;75.63;97891.44;4198308;28;20632;-77
2023/06/18 02:15:26;;;;;;;12.00;9.57;;;;;;;16.42;75.66;97896.69;4190241;28;20650;-77
2023/06/18 02:17:31;;;;;;;11.27;9.70;;;;;;;16.38;76.13;97897.13;4199159;28;20782;-77
2023/06/18 02:19:34;;;;;;;12.23;10.40;;;;;;;16.33;76.91;97897.56;4178407;28;20670;-77
2023/06/18 02:21:38;;;;;;;11.93;9.33;;;;;;;16.32;76.68;97897.72;4199746;28;20711;-77
2023/06/18 02:23:43;;;;;;;11.53;9.20;;;;;;;16.30;76.84;97899.66;4198809;28;20635;-77
2023/06/18 02:25:48;;;;;;;11.77;9.53;;;;;;;16.26;77.70;97899.09;4195804;28;20723;-76
2023/06/18 02:27:56;;;;;;;9.97;8.97;;;;;;;16.21;76.62;97900.50;4196386;28;20629;-77
2023/06/18 02:30:01;;;;;;;11.67;9.10;;;;;;;16.19;76.88;97899.78;4180826;28;20737;-77
2023/06/18 02:32:06;;;;;;;13.20;9.17;;;;;;;16.18;77.28;97909.50;4199528;28;20642;-77
2023/06/18 02:34:10;;;;;;;11.03;9.40;;;;;;;16.17;75.58;97904.38;4198993;28;20637;-77
2023/06/18 02:36:13;;;;;;;10.47;9.07;;;;;;;16.16;76.22;97907.97;4185583;28;20721;-77
2023/06/18 02:38:17;;;;;;;10.67;9.33;;;;;;;16.16;75.35;97907.97;4198126;28;21200;-77
2023/06/18 02:40:22;;;;;;;10.17;8.67;;;;;;;16.15;77.00;97911.59;4199504;28;20645;-77
2023/06/18 02:42:26;;;;;;;12.40;9.20;;;;;;;16.12;76.05;97904.00;4194984;28;20641;-77
2023/06/18 02:44:31;;;;;;;10.10;9.10;;;;;;;16.12;76.50;97904.00;4194653;28;20638;-77
2023/06/18 02:46:35;;;;;;;10.23;9.13;;;;;;;16.09;77.20;97904.28;4196971;28;21107;-77
2023/06/18 02:48:39;;;;;;;10.93;9.30;;;;;;;16.05;76.70;97902.88;4194194;28;20642;-77
2023/06/18 02:50:43;;;;;;;10.60;8.90;;;;;;;15.95;75.85;97894.22;4198604;28;20673;-77
2023/06/18 02:52:47;;;;;;;11.80;10.43;;;;;;;15.89;76.81;97894.78;4188473;28;21292;-77
2023/06/18 02:54:52;;;;;;;10.00;8.53;;;;;;;15.86;77.92;97900.31;4196333;28;20644;-77
2023/06/18 02:56:55;;;;;;;11.63;9.70;;;;;;;15.85;77.08;97901.28;4201120;28;21012;-77
2023/06/18 02:58:59;;;;;;;9.33;8.40;;;;;;;15.89;77.43;97909.72;4195983;28;20690;-77
2023/06/18 03:01:05;;;;;;;11.90;10.20;;;;;;;15.88;78.64;97908.88;4188496;28;20625;-77
2023/06/18 03:03:14;;;;;;;10.60;9.30;;;;;;;15.90;77.31;97912.19;4190750;28;21278;-77
2023/06/18 03:05:21;;;;;;;13.00;9.70;;;;;;;15.87;77.83;97912.47;4190889;28;20689;-77
2023/06/18 03:07:26;;;;;;;11.30;9.27;;;;;;;15.88;77.27;97914.16;4190442;28;21119;-77
2023/06/18 03:09:29;;;;;;;11.30;9.80;;;;;;;15.87;77.92;97915.09;4201899;28;20987;-77
2023/06/18 03:11:33;;;;;;;10.87;9.70;;;;;;;15.87;78.21;97922.19;4188780;28;20632;-77
2023/06/18 03:13:43;;;;;;;10.57;9.23;;;;;;;15.86;76.65;97915.25;4195460;28;20625;-77
2023/06/18 03:15:46;;;;;;;11.30;9.37;;;;;;;15.84;78.93;97918.03;4206291;28;20694;-77
2023/06/18 03:17:53;;;;;;;11.53;9.50;;;;;;;15.83;78.31;97929.53;4204104;28;20653;-77
2023/06/18 03:19:57;;;;;;;10.93;9.03;;;;;;;15.82;78.34;97919.97;4205685;28;20631;-77
2023/06/18 03:22:02;;;;;;;10.27;9.20;;;;;;;15.81;76.95;97923.56;4190061;28;20651;-77
2023/06/18 03:24:06;;;;;;;10.00;9.00;;;;;;;15.77;76.52;97930.09;4202456;28;20658;-77
2023/06/18 03:26:11;;;;;;;10.33;9.10;;;;;;;15.76;76.45;97927.59;4202848;28;20695;-77
2023/06/18 03:28:15;;;;;;;12.43;9.83;;;;;;;15.77;78.15;97937.97;4193945;28;20628;-77
2023/06/18 03:30:21;;;;;;;12.63;10.30;;;;;;;15.77;77.82;97934.50;4177750;28;20628;-77
2023/06/18 03:32:25;;;;;;;10.00;8.77;;;;;;;15.78;77.63;97921.22;4187731;28;20638;-77
2023/06/18 03:34:32;;;;;;;16.27;10.60;;;;;;;15.75;77.01;97932.00;4197537;28;22263;-77
2023/06/18 03:36:41;;;;;;;10.47;9.20;;;;;;;15.72;77.76;97926.22;4198852;28;20648;-77
2023/06/18 03:38:46;;;;;;;10.80;9.70;;;;;;;15.71;77.00;97933.28;4195113;28;20682;-77
2023/06/18 03:40:49;;;;;;;13.57;10.17;;;;;;;15.69;78.28;97935.19;4178110;28;20667;-77
2023/06/18 03:42:55;;;;;;;10.53;9.43;;;;;;;15.68;78.65;97936.19;4187529;28;20691;-77
2023/06/18 03:45:00;;;;;;;12.23;9.53;;;;;;;15.68;78.96;97936.19;4186912;28;20634;-77
2023/06/18 03:47:04;;;;;;;11.03;9.27;;;;;;;15.68;78.39;97936.19;4197021;28;20637;-77
2023/06/18 03:49:08;;;;;;;10.87;9.53;;;;;;;15.68;78.55;97933.56;4183077;28;20669;-77
2023/06/18 03:51:14;;;;;;;11.00;9.90;;;;;;;15.70;76.96;97934.25;4199493;28;20633;-78
2023/06/18 03:53:18;;;;;;;10.90;9.67;;;;;;;15.70;77.27;97933.44;4188621;28;20656;-77
2023/06/18 03:55:23;;;;;;;10.80;9.70;;;;;;;15.71;79.00;97941.16;4189674;28;20620;-77
2023/06/18 03:57:27;;;;;;;10.77;9.67;;;;;;;15.75;78.51;97947.78;4187873;28;20684;-77
2023/06/18 03:59:31;;;;;;;11.77;9.90;;;;;;;15.74;78.55;97950.56;4200842;28;20659;-77
2023/06/18 04:01:34;;;;;;;10.20;9.00;;;;;;;15.75;77.47;97953.06;4184285;28;20629;-77
2023/06/18 04:03:38;;;;;;;13.20;9.90;;;;;;;15.79;77.81;97949.19;4199807;28;20634;-77
2023/06/18 04:05:42;;;;;;;11.50;9.97;;;;;;;15.83;77.40;97957.63;4200321;28;21107;-77
2023/06/18 04:07:48;;;;;;;10.73;9.10;;;;;;;15.81;77.67;97957.75;4195601;28;20671;-77
2023/06/18 04:09:52;;;;;;;10.77;9.50;;;;;;;15.81;79.11;97959.56;4181250;28;20665;-77
2023/06/18 04:11:56;;;;;;;10.73;9.30;;;;;;;15.81;78.73;97956.94;4189023;28;20635;-76
2023/06/18 04:14:00;;;;;;;11.00;9.03;;;;;;;15.81;78.27;97960.38;4185775;28;20632;-77
2023/06/18 04:16:06;;;;;;;11.53;9.83;;;;;;;15.82;78.28;97948.09;4199621;28;20642;-77
2023/06/18 04:18:09;;;;;;;10.23;8.93;;;;;;;15.84;78.89;97959.28;4193940;28;20655;-77
2023/06/18 04:20:13;;;;;;;12.50;10.10;;;;;;;15.85;79.25;97961.78;4193806;28;20724;-77
2023/06/18 04:22:17;;;;;;;12.27;10.47;;;;;;;15.83;77.57;97958.47;4208307;28;21306;-76
2023/06/18 04:24:23;;;;;;;10.37;9.00;;;;;;;15.81;77.95;97954.31;4191492;28;20735;-77
2023/06/18 04:26:26;;;;;;;11.97;9.10;;;;;;;15.82;79.29;97962.06;4183733;28;20616;-77
2023/06/18 04:28:30;;;;;;;11.83;9.80;;;;;;;15.82;77.03;97967.31;4194547;28;20720;-77
2023/06/18 04:30:34;;;;;;;12.67;10.30;;;;;;;15.86;77.96;97958.19;4200595;28;20648;-77
2023/06/18 04:32:39;;;;;;;12.97;10.20;;;;;;;15.92;78.57;97967.28;4204883;28;20734;-77
2023/06/18 04:34:43;;;;;;;12.40;9.90;;;;;;;15.97;79.57;97960.66;4186489;28;20634;-77
2023/06/18 04:36:46;;;;;;;12.30;9.60;;;;;;;16.05;78.14;97958.97;4200115;28;20655;-77
2023/06/18 04:38:50;;;;;;;10.93;9.50;;;;;;;16.14;76.89;97970.44;4183325;28;20690;-77
2023/06/18 04:40:55;;;;;;;11.20;10.00;;;;;;;16.22;77.40;97962.69;4201505;28;21053;-77
2023/06/18 04:42:58;;;;;;;13.03;10.50;;;;;;;16.27;76.68;97963.13;4197838;28;21348;-77
2023/06/18 04:45:09;;;;;;;11.03;9.60;;;;;;;16.32;74.85;97959.06;4201547;28;20639;-77
2023/06/18 04:47:13;;;;;;;14.63;13.13;;;;;;;16.36;74.52;97960.47;4184331;28;21027;-77
2023/06/18 04:49:16;;;;;;;12.63;10.00;;;;;;;16.42;77.25;97965.16;4200909;28;20629;-77
2023/06/18 04:51:20;;;;;;;11.43;9.80;;;;;;;16.49;76.86;97958.31;4183955;28;20635;-77
2023/06/18 04:53:24;;;;;;;11.33;9.73;;;;;;;16.54;77.38;97956.94;4201662;28;20641;-77
2023/06/18 04:55:28;;;;;;;10.67;9.43;;;;;;;16.60;76.08;97955.53;4202449;28;20635;-77
2023/06/18 04:57:33;;;;;;;11.57;10.30;;;;;;;16.68;75.65;97959.06;4188219;28;20666;-77
2023/06/18 04:59:38;;;;;;;13.30;9.83;;;;;;;16.76;77.20;97958.34;4195263;28;20634;-77
2023/06/18 05:01:41;;;;;;;11.53;9.93;;;;;;;16.82;75.54;97960.41;4180985;28;21369;-77
2023/06/18 05:03:45;;;;;;;13.77;10.13;;;;;;;16.85;74.21;97949.56;4203118;28;20703;-77
2023/06/18 05:05:48;;;;;;;11.50;10.30;;;;;;;16.92;75.59;97956.75;4182171;28;20684;-77
2023/06/18 05:07:53;;;;;;;11.70;9.20;;;;;;;17.03;76.15;97960.03;4205002;28;20740;-77
2023/06/18 05:09:57;;;;;;;11.77;9.60;;;;;;;17.13;75.10;97959.97;4196760;28;20644;-77
2023/06/18 05:12:01;;;;;;;11.60;9.97;;;;;;;17.24;75.05;97955.31;4185283;28;21053;-77
2023/06/18 05:14:07;;;;;;;12.73;10.10;;;;;;;17.35;75.39;97957.78;4187386;28;20634;-77
2023/06/18 05:16:12;;;;;;;10.30;9.30;;;;;;;17.45;74.23;97962.97;4181434;28;20635;-77
2023/06/18 05:18:16;;;;;;;11.73;10.53;;;;;;;17.54;75.00;97966.34;4188291;28;20686;-77
2023/06/18 05:20:19;;;;;;;11.73;9.10;;;;;;;17.64;75.15;97961.84;4199382;28;20772;-77
2023/06/18 05:22:23;;;;;;;10.90;9.80;;;;;;;17.74;74.62;97967.88;4199756;28;20761;-77
2023/06/18 05:24:26;;;;;;;11.00;9.50;;;;;;;17.85;74.75;97970.28;4202267;28;22360;-77
2023/06/18 05:26:30;;;;;;;10.90;9.60;;;;;;;17.98;74.83;97968.06;4193268;28;20629;-77
2023/06/18 05:28:34;;;;;;;11.93;10.60;;;;;;;18.07;73.33;97964.50;4193057;28;20635;-77
2023/06/18 05:30:39;;;;;;;11.80;10.60;;;;;;;18.17;72.95;97963.44;4190129;28;20626;-77
2023/06/18 05:32:42;;;;;;;11.93;10.23;;;;;;;18.29;72.66;97964.84;4189286;28;20647;-77
2023/06/18 05:34:49;;;;;;;9.83;8.83;;;;;;;18.45;71.26;97970.25;4202844;28;21060;-77
2023/06/18 05:36:53;;;;;;;10.97;9.87;;;;;;;18.63;72.25;97977.13;4183820;28;21290;-77
2023/06/18 05:38:59;;;;;;;11.60;9.17;;;;;;;18.88;71.90;97973.59;4215994;28;20662;-77
2023/06/18 05:41:04;;;;;;;11.40;10.20;;;;;;;19.12;71.34;97982.50;4179990;28;20630;-77
2023/06/18 05:43:08;;;;;;;10.57;9.57;;;;;;;19.38;70.15;97984.09;4191430;28;21176;-77
2023/06/18 05:45:18;;;;;;;11.10;9.53;;;;;;;19.67;68.87;97988.94;4191399;28;21238;-77
2023/06/18 05:47:24;;;;;;;10.70;9.40;;;;;;;19.94;70.09;97997.44;4209293;28;20732;-77
2023/06/18 05:49:28;;;;;;;15.20;9.73;;;;;;;20.19;67.27;97996.44;4199126;28;20750;-78
2023/06/18 05:51:34;;;;;;;9.90;8.90;;;;;;;20.42;66.84;97992.97;4186356;28;20642;-78
2023/06/18 05:53:38;;;;;;;10.50;9.37;;;;;;;20.65;67.29;98002.69;4200941;28;20728;-78
2023/06/18 05:55:43;;;;;;;10.30;9.20;;;;;;;20.88;66.40;97993.03;4200222;28;21258;-78
2023/06/18 05:57:49;;;;;;;10.07;8.97;;;;;;;21.09;67.03;97999.41;4182635;28;20667;-78
2023/06/18 05:59:54;;;;;;;11.17;9.67;;;;;;;21.28;66.93;98007.00;4184850;28;20631;-78
2023/06/18 06:01:57;;;;;;;10.33;9.23;;;;;;;21.44;64.83;98005.09;4207145;28;20743;-78
2023/06/18 06:04:04;;;;;;;10.77;9.67;;;;;;;21.53;64.81;97998.78;4192443;28;20648;-78
2023/06/18 06:06:08;;;;;;;9.77;8.63;;;;;;;21.55;65.24;97996.75;4180710;28;20661;-78
2023/06/18 06:08:12;;;;;;;10.10;9.00;;;;;;;21.59;66.21;98003.38;4187789;28;21326;-78
2023/06/18 06:10:19;;;;;;;10.60;9.50;;;;;;;21.67;65.45;97999.84;4201480;28;20629;-78
2023/06/18 06:12:29;;;;;;;10.33;9.33;;;;;;;21.75;65.90;97992.66;4182520;28;21068;-78
2023/06/18 06:14:33;;;;;;;11.87;9.83;;;;;;;21.88;64.85;97993.72;4200996;28;20648;-79
2023/06/18 06:16:36;;;;;;;9.60;8.60;;;;;;;22.06;64.56;98001.41;4185713;28;21210;-78
2023/06/18 06:18:40;;;;;;;9.60;8.60;;;;;;;22.24;64.26;97997.47;4188627;28;21238;-77
2023/06/18 06:20:45;;;;;;;10.67;9.07;;;;;;;22.48;64.80;97997.25;4188659;28;20665;-78
2023/06/18 06:22:49;;;;;;;11.23;9.67;;;;;;;22.68;63.85;97996.53;4162505;28;20639;-78
2023/06/18 06:24:54;;;;;;;11.23;9.17;;;;;;;22.88;64.13;97993.16;4151623;28;21304;-78
2023/06/18 06:26:57;;;;;;;9.77;8.77;;;;;;;23.06;64.78;97998.97;4175438;28;20668;-78
2023/06/18 06:29:01;;;;;;;10.70;9.37;;;;;;;23.25;62.88;98003.72;4164909;28;20669;-78
2023/06/18 06:31:05;;;;;;;10.50;9.50;;;;;;;23.51;62.32;98007.53;4190394;28;20643;-78
2023/06/18 06:33:09;;;;;;;9.87;8.87;;;;;;;23.73;61.67;98006.63;4166150;28;20652;-78
2023/06/18 06:35:15;;;;;;;10.27;9.23;;;;;;;23.94;61.25;98003.97;4187471;28;20643;-78
2023/06/18 06:37:21;;;;;;;9.43;8.53;;;;;;;24.15;62.05;98009.31;4187653;28;20620;-78
2023/06/18 06:39:25;;;;;;;10.87;9.77;;;;;;;24.42;63.51;98004.06;4186924;28;20674;-78
2023/06/18 06:41:29;;;;;;;10.40;9.40;;;;;;;24.60;61.67;98012.38;4177987;28;20640;-78
2023/06/18 06:43:38;;;;;;;10.57;9.57;;;;;;;24.71;60.94;98002.03;4169436;28;20628;-78
2023/06/18 06:46:10;;;;;;;10.07;9.07;;;;;;;24.90;60.85;98004.03;4194722;28;20634;-78
2023/06/18 06:48:20;;;;;;;11.13;9.73;;;;;;;25.06;59.73;98003.72;4153304;28;20619;-78
2023/06/18 06:50:49;;;;;;;9.03;8.10;;;;;;;25.31;58.63;98005.72;4188159;28;20634;-77
2023/06/18 06:53:05;;;;;;;9.87;8.97;;;;;;;25.58;58.23;98002.16;4199505;28;21007;-78
2023/06/18 06:55:09;;;;;;;9.60;8.60;;;;;;;25.72;57.65;98002.00;4177335;28;20629;-77
2023/06/18 06:57:13;;;;;;;9.57;8.20;;;;;;;25.87;57.25;98005.34;4184278;28;20644;-78
2023/06/18 06:59:17;;;;;;;10.10;9.10;;;;;;;25.92;57.13;98005.56;4178779;28;20732;-78
2023/06/18 07:01:22;;;;;;;10.17;9.00;;;;;;;26.05;58.52;97993.03;4170122;28;21221;-78
2023/06/18 07:03:27;;;;;;;9.93;8.93;;;;;;;26.18;57.10;98001.91;4163646;28;20746;-78
2023/06/18 07:05:32;;;;;;;9.00;8.10;;;;;;;26.37;57.24;98002.97;4163616;28;24589;-78
2023/06/18 07:07:36;;;;;;;8.70;7.80;;;;;;;26.53;55.29;97998.06;4184956;28;20671;-78
2023/06/18 07:09:42;;;;;;;9.17;8.27;;;;;;;26.72;56.09;97994.56;4169862;28;20670;-78
2023/06/18 07:11:47;;;;;;;9.30;8.40;;;;;;;26.90;55.04;97995.59;4188493;28;20726;-78
2023/06/18 07:13:53;;;;;;;8.67;7.80;;;;;;;27.01;54.21;98004.84;4183810;28;20750;-78
2023/06/18 07:15:56;;;;;;;8.30;7.50;;;;;;;27.08;53.54;98001.94;4197641;28;21008;-78
2023/06/18 07:18:01;;;;;;;8.47;7.67;;;;;;;27.21;53.17;97998.41;4189233;28;20625;-78
2023/06/18 07:20:11;;;;;;;8.67;7.87;;;;;;;27.41;53.32;98001.84;4182596;28;20658;-78
2023/06/18 07:22:14;;;;;;;8.77;7.80;;;;;;;27.56;52.61;98005.97;4166782;28;21267;-78
2023/06/18 07:24:20;;;;;;;8.53;7.70;;;;;;;27.73;53.02;98007.13;4189687;28;20669;-77
2023/06/18 07:26:25;;;;;;;9.50;8.50;;;;;;;27.88;52.73;98015.72;4195741;28;20645;-79
2023/06/18 07:28:28;;;;;;;8.93;8.03;;;;;;;27.87;52.46;98011.38;4199171;28;21047;-78
2023/06/18 07:30:33;;;;;;;9.00;8.10;;;;;;;27.81;52.13;98009.53;4140874;28;20744;-77
2023/06/18 07:32:37;;;;;;;9.27;8.37;;;;;;;27.81;53.07;97999.63;4180038;28;20647;-77
2023/06/18 07:34:42;;;;;;;9.00;8.10;;;;;;;27.84;52.91;97999.19;4174715;28;20628;-77
2023/06/18 07:36:45;;;;;;;9.20;8.20;;;;;;;27.86;52.17;97996.31;4176279;28;20656;-77
2023/06/18 07:38:49;;;;;;;8.63;7.70;;;;;;;28.00;51.93;97999.53;4145274;28;20666;-77
2023/06/18 07:40:53;;;;;;;8.77;7.87;;;;;;;28.21;52.08;97993.84;4186286;28;20749;-77
2023/06/18 07:42:58;;;;;;;9.10;8.20;;;;;;;28.47;52.62;97990.97;4183339;28;20644;-77
2023/06/18 07:45:05;;;;;;;8.87;8.07;;;;;;;28.74;54.05;98000.50;4172030;28;20638;-80
2023/06/18 07:47:09;;;;;;;8.33;7.53;;;;;;;28.92;52.55;97992.47;4208392;28;20696;-80
2023/06/18 07:49:13;;;;;;;12.63;8.23;;;;;;;29.05;52.99;98007.41;4188439;28;20636;-80
2023/06/18 07:51:17;;;;;;;10.07;8.07;;;;;;;29.12;54.82;98007.34;4183109;28;20631;-80
2023/06/18 07:53:21;;;;;;;8.40;7.60;;;;;;;29.15;55.38;97999.69;4186946;28;24948;-80
2023/06/18 07:55:26;;;;;;;7.83;7.03;;;;;;;29.21;55.01;97998.78;4152284;28;21031;-80
2023/06/18 07:57:30;;;;;;;9.23;8.33;;;;;;;29.26;53.46;97993.59;4161966;28;21249;-80
2023/06/18 07:59:36;;;;;;;7.80;7.10;;;;;;;29.28;52.15;97994.16;4195806;28;20678;-79
2023/06/18 08:01:39;;;;;;;9.40;8.40;;;;;;;29.30;52.08;97992.06;4195565;28;20883;-80
2023/06/18 08:03:45;;;;;;;8.20;7.40;;;;;;;29.44;52.30;97988.22;4160753;28;21203;-80
2023/06/18 08:05:49;;;;;;;8.40;7.50;;;;;;;29.51;51.25;97991.63;4162753;28;20636;-81
2023/06/18 08:07:52;;;;;;;8.90;8.00;;;;;;;29.67;51.60;97994.53;4147616;28;20640;-80
2023/06/18 08:09:55;;;;;;;8.53;7.10;;;;;;;29.78;51.29;97984.88;4173475;28;20642;-81
2023/06/18 08:11:59;;;;;;;7.73;7.00;;;;;;;29.84;52.55;97992.06;4177613;28;20678;-81
2023/06/18 08:14:04;;;;;;;8.47;7.67;;;;;;;29.90;51.78;97986.59;4190699;28;20694;-78
2023/06/18 08:16:09;;;;;;;7.43;6.60;;;;;;;30.04;53.81;97990.72;4196992;28;20645;-78
2023/06/18 08:18:14;;;;;;;8.60;7.80;;;;;;;30.12;51.33;97980.47;4169767;28;21288;-78
2023/06/18 08:20:19;;;;;;;7.70;6.53;;;;;;;30.15;51.63;97982.69;4180367;28;20720;-76
2023/06/18 08:22:26;;;;;;;8.10;7.30;;;;;;;30.18;50.72;97979.56;4184573;28;20637;-76
2023/06/18 08:24:32;;;;;;;8.70;7.50;;;;;;;30.29;51.34;97986.03;4181874;28;20640;-76
2023/06/18 08:26:38;;;;;;;7.17;6.47;;;;;;;30.47;53.13;97979.53;4187040;28;20641;-76
2023/06/18 08:28:43;;;;;;;7.33;6.60;;;;;;;30.62;49.78;97981.78;4180419;28;20721;-76
2023/06/18 08:30:50;;;;;;;7.73;6.93;;;;;;;30.65;47.48;97971.34;4178066;28;20693;-76
2023/06/18 08:32:59;;;;;;;8.97;7.80;;;;;;;30.72;48.93;97974.75;4176907;28;21208;-77
2023/06/18 08:35:05;;;;;;;7.90;6.70;;;;;;;30.80;47.78;97971.72;4186434;28;20615;-76
2023/06/18 08:37:10;;;;;;;7.20;6.50;;;;;;;30.78;46.51;97965.75;4200790;28;20639;-76
2023/06/18 08:39:15;;;;;;;7.23;6.53;;;;;;;30.81;46.72;97964.44;4180149;28;20621;-76
2023/06/18 08:41:21;;;;;;;7.50;6.80;;;;;;;30.96;48.24;97963.78;4181193;28;21203;-77
2023/06/18 08:43:31;;;;;;;7.77;6.70;;;;;;;31.23;51.68;97977.56;4199001;28;20631;-77
2023/06/18 08:45:39;;;;;;;7.07;6.30;;;;;;;31.43;48.07;97976.97;4178453;28;20635;-77
2023/06/18 08:47:45;;;;;;;7.43;6.70;;;;;;;31.36;45.94;97966.53;4199045;28;21476;-76
2023/06/18 08:49:51;;;;;;;7.03;6.33;;;;;;;31.40;46.52;97963.16;4198323;28;20634;-75
2023/06/18 08:52:01;;;;;;;7.47;6.77;;;;;;;31.50;46.93;97971.47;4195742;28;20774;-77
2023/06/18 08:54:13;;;;;;;6.93;6.33;;;;;;;31.60;45.68;97963.56;4188115;28;20654;-77
2023/06/18 08:56:19;;;;;;;7.30;6.43;;;;;;;31.68;44.21;97965.88;4190049;28;20623;-77
2023/06/18 08:58:26;;;;;;;7.07;6.37;;;;;;;31.70;43.53;97967.28;4184517;28;20671;-77
2023/06/18 09:00:31;;;;;;;7.60;6.90;;;;;;;31.76;44.55;97962.81;4190974;28;21089;-77
2023/06/18 09:02:34;;;;;;;6.70;6.03;;;;;;;31.80;45.06;97961.25;4194447;28;20701;-77
2023/06/18 09:04:41;;;;;;;6.70;6.10;;;;;;;31.90;45.78;97968.53;4189401;28;20688;-76
2023/06/18 09:06:47;;;;;;;8.20;6.80;;;;;;;31.93;44.32;97968.06;4182176;28;20655;-77
2023/06/18 09:09:04;;;;;;;7.80;7.10;;;;;;;31.95;43.74;97965.94;4191407;28;20641;-76
2023/06/18 09:11:09;;;;;;;7.23;6.53;;;;;;;31.92;40.97;97960.22;4185072;28;21234;-76
2023/06/18 09:13:14;;;;;;;7.93;6.60;;;;;;;31.90;44.44;97963.13;4180877;28;20667;-76
2023/06/18 09:15:20;;;;;;;8.10;7.03;;;;;;;32.03;45.72;97962.03;4177490;28;20670;-77
2023/06/18 09:17:27;;;;;;;7.43;6.73;;;;;;;32.16;45.61;97962.56;4174233;28;20736;-76
2023/06/18 09:19:34;;;;;;;7.50;6.80;;;;;;;32.28;44.22;97957.91;4166503;28;20675;-76
2023/06/18 09:21:42;;;;;;;7.10;6.40;;;;;;;32.37;45.41;97948.31;4174174;28;20731;-76
2023/06/18 09:23:55;;;;;;;7.40;6.70;;;;;;;32.35;44.13;97945.84;4186215;28;20649;-76
2023/06/18 09:26:01;;;;;;;6.70;6.10;;;;;;;32.43;44.95;97947.38;4178090;28;20670;-76
2023/06/18 09:28:09;;;;;;;6.70;6.10;;;;;;;32.61;44.39;97949.81;4195384;28;20652;-76
2023/06/18 09:30:19;;;;;;;6.90;6.20;;;;;;;32.50;42.47;97939.91;4195823;28;20631;-76
2023/06/18 09:32:23;;;;;;;7.53;6.83;;;;;;;32.45;43.31;97934.44;4206023;28;20634;-76
2023/06/18 09:34:32;;;;;;;7.47;6.77;;;;;;;32.51;45.20;97938.88;4197176;28;20640;-76
2023/06/18 09:36:43;;;;;;;7.70;6.57;;;;;;;32.56;41.98;97936.25;4192474;28;20639;-76
2023/06/18 09:38:56;;;;;;;7.00;6.30;;;;;;;32.62;42.96;97937.97;4176030;28;21947;-76
2023/06/18 09:41:03;;;;;;;6.93;6.30;;;;;;;32.65;41.86;97929.34;4170130;28;21245;-76
2023/06/18 09:43:16;;;;;;;8.77;6.70;;;;;;;32.70;44.60;97937.53;4184356;28;20629;-76
2023/06/18 09:45:21;;;;;;;6.90;6.20;;;;;;;32.66;42.32;97931.00;4191690;28;20704;-76